sensor_id;sensor_type;location;lat;lon;timestamp;temperature;humidity
22827;DHT22;11580;52.562;13.418;2023-02-28T00:01:07;6.30;26.20
22827;DHT22;11580;52.562;13.418;2023-02-28T00:03:35;6.30;26.70
22827;DHT22;11580;52.562;13.418;2023-02-28T00:06:03;6.20;26.20
22827;DHT22;11580;52.562;13.418;2023-02-28T00:08:31;6.20;26.20
22827;DHT22;11580;52.562;13.418;2023-02-28T00:11:02;6.20;26.30
22827;DHT22;11580;52.562;13.418;2023-02-28T00:13:32;6.20;26.40
22827;DHT22;11580;52.562;13.418;2023-02-28T00:16:02;6.10;26.40
22827;DHT22;11580;52.562;13.418;2023-02-28T00:18:31;6.10;26.50
22827;DHT22;11580;52.562;13.418;2023-02-28T00:20:58;6.10;26.60
22827;DHT22;11580;52.562;13.418;2023-02-28T00:23:26;6.10;26.70
22827;DHT22;11580;52.562;13.418;2023-02-28T00:25:54;6.10;26.80
22827;DHT22;11580;52.562;13.418;2023-02-28T00:28:23;6.10;26.80
22827;DHT22;11580;52.562;13.418;2023-02-28T00:30:52;6.10;26.90
22827;DHT22;11580;52.562;13.418;2023-02-28T00:33:22;6.10;26.80
22827;DHT22;11580;52.562;13.418;2023-02-28T00:35:49;6.10;26.80
22827;DHT22;11580;52.562;13.418;2023-02-28T00:38:17;6.10;26.80
22827;DHT22;11580;52.562;13.418;2023-02-28T00:40:44;6.10;27.40
22827;DHT22;11580;52.562;13.418;2023-02-28T00:43:11;6.10;26.80
22827;DHT22;11580;52.562;13.418;2023-02-28T00:45:39;6.10;27.40
22827;DHT22;11580;52.562;13.418;2023-02-28T00:48:07;6.20;26.90
22827;DHT22;11580;52.562;13.418;2023-02-28T00:50:34;6.20;27.40
22827;DHT22;11580;52.562;13.418;2023-02-28T00:53:01;6.20;26.90
22827;DHT22;11580;52.562;13.418;2023-02-28T00:55:28;6.20;26.90
22827;DHT22;11580;52.562;13.418;2023-02-28T00:57:55;6.20;26.90
22827;DHT22;11580;52.562;13.418;2023-02-28T01:00:22;6.20;26.90
22827;DHT22;11580;52.562;13.418;2023-02-28T01:02:51;6.30;27.00
22827;DHT22;11580;52.562;13.418;2023-02-28T01:05:18;6.20;26.90
22827;DHT22;11580;52.562;13.418;2023-02-28T01:07:45;6.30;27.00
22827;DHT22;11580;52.562;13.418;2023-02-28T01:10:13;6.30;27.00
22827;DHT22;11580;52.562;13.418;2023-02-28T01:12:40;6.30;27.00
22827;DHT22;11580;52.562;13.418;2023-02-28T01:15:10;6.30;26.80
22827;DHT22;11580;52.562;13.418;2023-02-28T01:17:37;6.30;26.70
22827;DHT22;11580;52.562;13.418;2023-02-28T01:20:07;6.20;27.20
22827;DHT22;11580;52.562;13.418;2023-02-28T01:22:36;6.20;26.50
22827;DHT22;11580;52.562;13.418;2023-02-28T01:25:04;6.20;27.00
22827;DHT22;11580;52.562;13.418;2023-02-28T01:27:31;6.20;26.20
22827;DHT22;11580;52.562;13.418;2023-02-28T01:30:01;6.10;26.70
22827;DHT22;11580;52.562;13.418;2023-02-28T01:32:28;6.00;26.00
22827;DHT22;11580;52.562;13.418;2023-02-28T01:34:55;6.00;25.90
22827;DHT22;11580;52.562;13.418;2023-02-28T01:37:24;5.90;25.60
22827;DHT22;11580;52.562;13.418;2023-02-28T01:39:51;5.90;25.30
22827;DHT22;11580;52.562;13.418;2023-02-28T01:42:19;5.80;25.90
22827;DHT22;11580;52.562;13.418;2023-02-28T01:45:03;5.70;24.90
22827;DHT22;11580;52.562;13.418;2023-02-28T01:47:41;5.60;24.60
22827;DHT22;11580;52.562;13.418;2023-02-28T01:50:13;5.60;23.50
22827;DHT22;11580;52.562;13.418;2023-02-28T01:52:44;5.50;21.50
22827;DHT22;11580;52.562;13.418;2023-02-28T01:55:15;5.50;18.10
22827;DHT22;11580;52.562;13.418;2023-02-28T01:57:48;5.50;1.00
22827;DHT22;11580;52.562;13.418;2023-02-28T02:00:21;5.50;99.90
22827;DHT22;11580;52.562;13.418;2023-02-28T02:02:55;5.50;1.00
22827;DHT22;11580;52.562;13.418;2023-02-28T02:05:26;5.40;1.00
22827;DHT22;11580;52.562;13.418;2023-02-28T02:08:02;5.40;1.00
22827;DHT22;11580;52.562;13.418;2023-02-28T02:10:34;5.40;1.00
22827;DHT22;11580;52.562;13.418;2023-02-28T02:13:19;5.30;1.00
22827;DHT22;11580;52.562;13.418;2023-02-28T02:16:07;5.30;1.00
22827;DHT22;11580;52.562;13.418;2023-02-28T02:18:44;5.30;1.00
22827;DHT22;11580;52.562;13.418;2023-02-28T02:21:47;5.20;5.90
22827;DHT22;11580;52.562;13.418;2023-02-28T02:34:41;4.90;16.40
22827;DHT22;11580;52.562;13.418;2023-02-28T02:37:19;4.80;1.00
22827;DHT22;11580;52.562;13.418;2023-02-28T02:40:00;4.70;1.00
22827;DHT22;11580;52.562;13.418;2023-02-28T02:42:40;4.60;1.00
22827;DHT22;11580;52.562;13.418;2023-02-28T02:45:15;4.60;99.90
22827;DHT22;11580;52.562;13.418;2023-02-28T02:47:46;4.50;99.90
22827;DHT22;11580;52.562;13.418;2023-02-28T02:50:21;4.50;1.00
22827;DHT22;11580;52.562;13.418;2023-02-28T02:52:56;4.40;82.20
22827;DHT22;11580;52.562;13.418;2023-02-28T02:55:30;4.40;1.00
22827;DHT22;11580;52.562;13.418;2023-02-28T02:58:02;4.50;1.00
22827;DHT22;11580;52.562;13.418;2023-02-28T03:00:35;4.30;1.00
22827;DHT22;11580;52.562;13.418;2023-02-28T03:03:07;4.30;1.00
22827;DHT22;11580;52.562;13.418;2023-02-28T03:05:41;4.30;1.00
22827;DHT22;11580;52.562;13.418;2023-02-28T03:08:13;4.20;1.00
22827;DHT22;11580;52.562;13.418;2023-02-28T03:10:42;4.20;1.00
22827;DHT22;11580;52.562;13.418;2023-02-28T03:13:36;4.10;1.00
22827;DHT22;11580;52.562;13.418;2023-02-28T03:16:36;4.10;1.00
22827;DHT22;11580;52.562;13.418;2023-02-28T03:19:34;4.10;1.00
22827;DHT22;11580;52.562;13.418;2023-02-28T03:22:28;4.00;1.00
22827;DHT22;11580;52.562;13.418;2023-02-28T03:25:09;4.00;1.00
22827;DHT22;11580;52.562;13.418;2023-02-28T03:27:53;4.00;1.00
22827;DHT22;11580;52.562;13.418;2023-02-28T03:30:35;4.00;1.00
22827;DHT22;11580;52.562;13.418;2023-02-28T03:33:09;3.90;99.90
22827;DHT22;11580;52.562;13.418;2023-02-28T03:35:42;3.90;99.90
22827;DHT22;11580;52.562;13.418;2023-02-28T03:38:18;3.90;99.90
22827;DHT22;11580;52.562;13.418;2023-02-28T03:40:51;3.80;99.90
22827;DHT22;11580;52.562;13.418;2023-02-28T03:43:29;3.80;99.90
22827;DHT22;11580;52.562;13.418;2023-02-28T03:46:02;3.80;99.90
22827;DHT22;11580;52.562;13.418;2023-02-28T03:48:38;3.80;99.90
22827;DHT22;11580;52.562;13.418;2023-02-28T03:51:12;3.80;99.90
22827;DHT22;11580;52.562;13.418;2023-02-28T03:53:47;3.80;99.90
22827;DHT22;11580;52.562;13.418;2023-02-28T03:56:20;3.70;99.90
22827;DHT22;11580;52.562;13.418;2023-02-28T03:58:54;3.80;99.90
22827;DHT22;11580;52.562;13.418;2023-02-28T04:01:28;3.70;99.90
22827;DHT22;11580;52.562;13.418;2023-02-28T04:04:00;3.70;99.90
22827;DHT22;11580;52.562;13.418;2023-02-28T04:06:31;3.70;99.90
22827;DHT22;11580;52.562;13.418;2023-02-28T04:09:01;3.70;99.90
22827;DHT22;11580;52.562;13.418;2023-02-28T04:11:33;3.60;99.90
22827;DHT22;11580;52.562;13.418;2023-02-28T04:14:02;3.60;99.90
22827;DHT22;11580;52.562;13.418;2023-02-28T04:16:30;3.60;99.90
22827;DHT22;11580;52.562;13.418;2023-02-28T04:18:58;3.60;99.90
22827;DHT22;11580;52.562;13.418;2023-02-28T04:21:27;3.60;99.90
22827;DHT22;11580;52.562;13.418;2023-02-28T04:23:55;3.60;99.90
22827;DHT22;11580;52.562;13.418;2023-02-28T04:26:28;3.50;99.90
22827;DHT22;11580;52.562;13.418;2023-02-28T04:28:56;3.50;99.90
22827;DHT22;11580;52.562;13.418;2023-02-28T04:31:24;3.50;99.90
22827;DHT22;11580;52.562;13.418;2023-02-28T04:33:51;3.50;99.90
22827;DHT22;11580;52.562;13.418;2023-02-28T04:36:18;3.40;99.90
22827;DHT22;11580;52.562;13.418;2023-02-28T04:38:46;3.50;99.90
22827;DHT22;11580;52.562;13.418;2023-02-28T04:41:13;3.40;99.90
22827;DHT22;11580;52.562;13.418;2023-02-28T04:43:42;3.40;99.90
22827;DHT22;11580;52.562;13.418;2023-02-28T04:46:09;3.40;99.90
22827;DHT22;11580;52.562;13.418;2023-02-28T04:48:38;3.40;99.90
22827;DHT22;11580;52.562;13.418;2023-02-28T04:51:08;3.40;99.90
22827;DHT22;11580;52.562;13.418;2023-02-28T04:53:37;3.30;99.90
22827;DHT22;11580;52.562;13.418;2023-02-28T04:56:06;3.30;99.90
22827;DHT22;11580;52.562;13.418;2023-02-28T04:58:35;3.30;99.90
22827;DHT22;11580;52.562;13.418;2023-02-28T05:01:04;3.30;99.90
22827;DHT22;11580;52.562;13.418;2023-02-28T05:03:38;3.20;99.90
22827;DHT22;11580;52.562;13.418;2023-02-28T05:06:07;3.20;99.90
22827;DHT22;11580;52.562;13.418;2023-02-28T05:08:34;3.10;99.90
22827;DHT22;11580;52.562;13.418;2023-02-28T05:11:01;3.10;99.90
22827;DHT22;11580;52.562;13.418;2023-02-28T05:13:29;3.10;99.90
22827;DHT22;11580;52.562;13.418;2023-02-28T05:15:56;3.10;99.90
22827;DHT22;11580;52.562;13.418;2023-02-28T05:18:25;3.00;99.90
22827;DHT22;11580;52.562;13.418;2023-02-28T05:20:52;3.00;99.90
22827;DHT22;11580;52.562;13.418;2023-02-28T05:23:20;3.00;99.90
22827;DHT22;11580;52.562;13.418;2023-02-28T05:25:49;2.90;99.90
22827;DHT22;11580;52.562;13.418;2023-02-28T05:28:17;2.90;99.90
22827;DHT22;11580;52.562;13.418;2023-02-28T05:30:48;2.90;99.90
22827;DHT22;11580;52.562;13.418;2023-02-28T05:33:15;2.90;99.90
22827;DHT22;11580;52.562;13.418;2023-02-28T05:35:43;2.90;99.90
22827;DHT22;11580;52.562;13.418;2023-02-28T05:38:11;2.90;99.90
22827;DHT22;11580;52.562;13.418;2023-02-28T05:40:38;2.80;99.90
22827;DHT22;11580;52.562;13.418;2023-02-28T05:43:07;2.90;99.90
22827;DHT22;11580;52.562;13.418;2023-02-28T05:45:37;2.80;99.90
22827;DHT22;11580;52.562;13.418;2023-02-28T05:48:05;2.80;99.90
22827;DHT22;11580;52.562;13.418;2023-02-28T05:50:32;2.80;99.90
22827;DHT22;11580;52.562;13.418;2023-02-28T05:53:01;2.80;99.90
22827;DHT22;11580;52.562;13.418;2023-02-28T05:55:28;2.80;99.90
22827;DHT22;11580;52.562;13.418;2023-02-28T05:57:55;2.80;99.90
22827;DHT22;11580;52.562;13.418;2023-02-28T06:00:23;2.80;1.00
22827;DHT22;11580;52.562;13.418;2023-02-28T06:02:50;2.80;99.90
22827;DHT22;11580;52.562;13.418;2023-02-28T06:05:22;2.80;1.00
22827;DHT22;11580;52.562;13.418;2023-02-28T06:07:49;2.80;1.00
22827;DHT22;11580;52.562;13.418;2023-02-28T06:10:18;2.90;1.00
22827;DHT22;11580;52.562;13.418;2023-02-28T06:12:45;2.80;1.00
22827;DHT22;11580;52.562;13.418;2023-02-28T06:15:13;2.90;1.00
22827;DHT22;11580;52.562;13.418;2023-02-28T06:17:43;2.90;1.00
22827;DHT22;11580;52.562;13.418;2023-02-28T06:20:11;2.90;1.00
22827;DHT22;11580;52.562;13.418;2023-02-28T06:22:39;2.90;1.00
22827;DHT22;11580;52.562;13.418;2023-02-28T06:25:07;2.90;1.00
22827;DHT22;11580;52.562;13.418;2023-02-28T06:27:37;2.90;1.00
22827;DHT22;11580;52.562;13.418;2023-02-28T06:30:06;3.00;1.00
22827;DHT22;11580;52.562;13.418;2023-02-28T06:32:34;3.00;11.00
22827;DHT22;11580;52.562;13.418;2023-02-28T06:35:01;3.00;99.90
22827;DHT22;11580;52.562;13.418;2023-02-28T06:37:30;3.10;1.00
22827;DHT22;11580;52.562;13.418;2023-02-28T06:39:58;3.10;1.00
22827;DHT22;11580;52.562;13.418;2023-02-28T06:42:25;3.10;1.00
22827;DHT22;11580;52.562;13.418;2023-02-28T06:44:56;3.10;1.00
22827;DHT22;11580;52.562;13.418;2023-02-28T06:47:23;3.20;1.00
22827;DHT22;11580;52.562;13.418;2023-02-28T06:49:51;3.20;1.00
22827;DHT22;11580;52.562;13.418;2023-02-28T06:52:18;3.20;1.00
22827;DHT22;11580;52.562;13.418;2023-02-28T06:54:45;3.30;12.40
22827;DHT22;11580;52.562;13.418;2023-02-28T06:57:12;3.30;11.50
22827;DHT22;11580;52.562;13.418;2023-02-28T06:59:39;3.40;6.60
22827;DHT22;11580;52.562;13.418;2023-02-28T07:02:09;3.40;7.50
22827;DHT22;11580;52.562;13.418;2023-02-28T07:04:36;3.50;16.00
22827;DHT22;11580;52.562;13.418;2023-02-28T07:07:06;3.70;16.80
22827;DHT22;11580;52.562;13.418;2023-02-28T07:09:33;3.60;16.70
22827;DHT22;11580;52.562;13.418;2023-02-28T07:12:00;3.70;16.70
22827;DHT22;11580;52.562;13.418;2023-02-28T07:14:27;3.70;16.20
22827;DHT22;11580;52.562;13.418;2023-02-28T07:16:54;3.80;17.60
22827;DHT22;11580;52.562;13.418;2023-02-28T07:19:23;3.90;17.80
22827;DHT22;11580;52.562;13.418;2023-02-28T07:21:50;3.90;18.20
22827;DHT22;11580;52.562;13.418;2023-02-28T07:24:17;4.00;19.10
22827;DHT22;11580;52.562;13.418;2023-02-28T07:26:45;4.00;18.10
22827;DHT22;11580;52.562;13.418;2023-02-28T07:29:12;4.10;22.20
22827;DHT22;11580;52.562;13.418;2023-02-28T07:31:39;4.20;21.40
22827;DHT22;11580;52.562;13.418;2023-02-28T07:34:06;4.30;22.30
22827;DHT22;11580;52.562;13.418;2023-02-28T07:36:35;4.30;20.60
22827;DHT22;11580;52.562;13.418;2023-02-28T07:39:02;4.40;20.90
22827;DHT22;11580;52.562;13.418;2023-02-28T07:41:30;4.40;10.50
22827;DHT22;11580;52.562;13.418;2023-02-28T07:43:59;4.70;16.60
22827;DHT22;11580;52.562;13.418;2023-02-28T07:46:27;4.70;1.00
22827;DHT22;11580;52.562;13.418;2023-02-28T07:49:00;4.70;1.00
22827;DHT22;11580;52.562;13.418;2023-02-28T07:51:28;4.80;1.00
22827;DHT22;11580;52.562;13.418;2023-02-28T07:53:57;4.90;1.00
22827;DHT22;11580;52.562;13.418;2023-02-28T07:56:24;4.90;1.00
22827;DHT22;11580;52.562;13.418;2023-02-28T07:58:51;5.00;1.00
22827;DHT22;11580;52.562;13.418;2023-02-28T08:01:19;5.10;1.00
22827;DHT22;11580;52.562;13.418;2023-02-28T08:03:46;5.20;1.00
22827;DHT22;11580;52.562;13.418;2023-02-28T08:06:17;5.30;1.00
22827;DHT22;11580;52.562;13.418;2023-02-28T08:08:46;5.40;1.00
22827;DHT22;11580;52.562;13.418;2023-02-28T08:11:15;5.40;20.20
22827;DHT22;11580;52.562;13.418;2023-02-28T08:13:43;5.50;29.30
22827;DHT22;11580;52.562;13.418;2023-02-28T08:16:12;5.60;29.90
22827;DHT22;11580;52.562;13.418;2023-02-28T08:18:43;5.70;30.50
22827;DHT22;11580;52.562;13.418;2023-02-28T08:21:10;5.80;30.00
22827;DHT22;11580;52.562;13.418;2023-02-28T08:23:38;5.90;29.90
22827;DHT22;11580;52.562;13.418;2023-02-28T08:26:06;6.00;29.70
22827;DHT22;11580;52.562;13.418;2023-02-28T08:28:34;6.20;29.70
22827;DHT22;11580;52.562;13.418;2023-02-28T08:31:07;6.30;29.10
22827;DHT22;11580;52.562;13.418;2023-02-28T08:33:36;6.40;28.40
22827;DHT22;11580;52.562;13.418;2023-02-28T08:36:05;6.50;29.10
22827;DHT22;11580;52.562;13.418;2023-02-28T08:38:33;6.60;29.10
22827;DHT22;11580;52.562;13.418;2023-02-28T08:41:02;6.70;29.00
22827;DHT22;11580;52.562;13.418;2023-02-28T08:43:34;6.80;28.70
22827;DHT22;11580;52.562;13.418;2023-02-28T08:46:02;6.90;28.80
22827;DHT22;11580;52.562;13.418;2023-02-28T08:48:32;7.00;28.40
22827;DHT22;11580;52.562;13.418;2023-02-28T08:51:05;7.10;28.00
22827;DHT22;11580;52.562;13.418;2023-02-28T08:53:35;7.20;27.50
22827;DHT22;11580;52.562;13.418;2023-02-28T08:56:04;7.30;27.70
22827;DHT22;11580;52.562;13.418;2023-02-28T08:58:35;7.40;27.60
22827;DHT22;11580;52.562;13.418;2023-02-28T09:01:08;7.50;27.00
22827;DHT22;11580;52.562;13.418;2023-02-28T09:03:36;7.60;25.80
22827;DHT22;11580;52.562;13.418;2023-02-28T09:06:04;7.70;27.50
22827;DHT22;11580;52.562;13.418;2023-02-28T09:08:31;7.80;26.50
22827;DHT22;11580;52.562;13.418;2023-02-28T09:10:59;7.90;26.90
22827;DHT22;11580;52.562;13.418;2023-02-28T09:13:27;7.90;26.20
22827;DHT22;11580;52.562;13.418;2023-02-28T09:15:59;8.00;25.90
22827;DHT22;11580;52.562;13.418;2023-02-28T09:18:27;8.10;24.70
22827;DHT22;11580;52.562;13.418;2023-02-28T09:20:55;8.10;25.70
22827;DHT22;11580;52.562;13.418;2023-02-28T09:23:23;8.20;25.40
22827;DHT22;11580;52.562;13.418;2023-02-28T09:25:53;8.30;25.20
22827;DHT22;11580;52.562;13.418;2023-02-28T09:28:22;8.30;24.50
22827;DHT22;11580;52.562;13.418;2023-02-28T09:30:51;8.40;24.80
22827;DHT22;11580;52.562;13.418;2023-02-28T09:33:21;8.40;24.70
22827;DHT22;11580;52.562;13.418;2023-02-28T09:35:48;8.50;24.30
22827;DHT22;11580;52.562;13.418;2023-02-28T09:38:17;8.50;24.80
22827;DHT22;11580;52.562;13.418;2023-02-28T09:40:49;8.50;24.60
22827;DHT22;11580;52.562;13.418;2023-02-28T09:43:20;8.60;23.60
22827;DHT22;11580;52.562;13.418;2023-02-28T09:45:54;8.70;24.20
22827;DHT22;11580;52.562;13.418;2023-02-28T09:48:33;8.70;23.60
22827;DHT22;11580;52.562;13.418;2023-02-28T09:51:12;8.80;22.80
22827;DHT22;11580;52.562;13.418;2023-02-28T09:53:49;8.80;23.00
22827;DHT22;11580;52.562;13.418;2023-02-28T09:56:21;8.90;24.10
22827;DHT22;11580;52.562;13.418;2023-02-28T09:58:56;8.90;23.00
22827;DHT22;11580;52.562;13.418;2023-02-28T10:01:32;9.00;23.10
22827;DHT22;11580;52.562;13.418;2023-02-28T10:04:13;9.00;22.50
22827;DHT22;11580;52.562;13.418;2023-02-28T10:06:51;9.00;21.80
22827;DHT22;11580;52.562;13.418;2023-02-28T10:09:22;9.00;23.10
22827;DHT22;11580;52.562;13.418;2023-02-28T10:11:56;9.00;22.40
22827;DHT22;11580;52.562;13.418;2023-02-28T10:14:28;9.00;22.70
22827;DHT22;11580;52.562;13.418;2023-02-28T10:17:02;9.00;22.90
22827;DHT22;11580;52.562;13.418;2023-02-28T10:19:38;9.00;22.60
22827;DHT22;11580;52.562;13.418;2023-02-28T10:22:12;9.00;22.00
22827;DHT22;11580;52.562;13.418;2023-02-28T10:24:43;9.10;22.40
22827;DHT22;11580;52.562;13.418;2023-02-28T10:27:15;9.10;22.70
22827;DHT22;11580;52.562;13.418;2023-02-28T10:29:47;9.10;22.60
22827;DHT22;11580;52.562;13.418;2023-02-28T10:32:19;9.10;22.70
22827;DHT22;11580;52.562;13.418;2023-02-28T10:34:52;9.20;22.30
22827;DHT22;11580;52.562;13.418;2023-02-28T10:37:24;9.20;21.90
22827;DHT22;11580;52.562;13.418;2023-02-28T10:39:51;9.20;22.70
22827;DHT22;11580;52.562;13.418;2023-02-28T10:42:21;9.30;22.60
22827;DHT22;11580;52.562;13.418;2023-02-28T10:45:06;9.30;21.80
22827;DHT22;11580;52.562;13.418;2023-02-28T10:47:49;9.30;20.20
22827;DHT22;11580;52.562;13.418;2023-02-28T10:50:45;9.30;21.80
22827;DHT22;11580;52.562;13.418;2023-02-28T10:53:30;9.30;20.90
22827;DHT22;11580;52.562;13.418;2023-02-28T10:56:01;9.30;20.40
22827;DHT22;11580;52.562;13.418;2023-02-28T10:58:32;9.20;21.40
22827;DHT22;11580;52.562;13.418;2023-02-28T11:01:15;9.20;21.50
22827;DHT22;11580;52.562;13.418;2023-02-28T11:03:43;9.20;21.50
22827;DHT22;11580;52.562;13.418;2023-02-28T11:06:16;9.10;21.80
22827;DHT22;11580;52.562;13.418;2023-02-28T11:08:49;9.20;21.00
22827;DHT22;11580;52.562;13.418;2023-02-28T11:11:19;9.20;21.70
22827;DHT22;11580;52.562;13.418;2023-02-28T11:13:51;9.20;21.80
22827;DHT22;11580;52.562;13.418;2023-02-28T11:16:20;9.20;21.40
22827;DHT22;11580;52.562;13.418;2023-02-28T11:18:49;9.20;21.80
22827;DHT22;11580;52.562;13.418;2023-02-28T11:21:23;9.30;21.80
22827;DHT22;11580;52.562;13.418;2023-02-28T11:23:56;9.30;21.20
22827;DHT22;11580;52.562;13.418;2023-02-28T11:26:42;9.40;21.30
22827;DHT22;11580;52.562;13.418;2023-02-28T11:29:19;9.40;20.00
22827;DHT22;11580;52.562;13.418;2023-02-28T11:32:09;9.40;20.60
22827;DHT22;11580;52.562;13.418;2023-02-28T11:34:41;9.40;20.10
22827;DHT22;11580;52.562;13.418;2023-02-28T11:37:16;9.40;21.80
22827;DHT22;11580;52.562;13.418;2023-02-28T11:39:46;9.50;20.70
22827;DHT22;11580;52.562;13.418;2023-02-28T11:42:42;9.50;22.50
22827;DHT22;11580;52.562;13.418;2023-02-28T11:45:26;9.50;20.10
22827;DHT22;11580;52.562;13.418;2023-02-28T11:48:16;9.60;21.20
22827;DHT22;11580;52.562;13.418;2023-02-28T11:51:04;9.60;20.30
22827;DHT22;11580;52.562;13.418;2023-02-28T11:53:54;9.60;19.90
22827;DHT22;11580;52.562;13.418;2023-02-28T11:56:32;9.60;20.20
22827;DHT22;11580;52.562;13.418;2023-02-28T11:59:14;9.60;20.90
22827;DHT22;11580;52.562;13.418;2023-02-28T12:02:06;9.60;20.10
22827;DHT22;11580;52.562;13.418;2023-02-28T12:04:53;9.60;20.30
22827;DHT22;11580;52.562;13.418;2023-02-28T12:07:46;9.60;20.40
22827;DHT22;11580;52.562;13.418;2023-02-28T12:10:22;9.60;20.30
22827;DHT22;11580;52.562;13.418;2023-02-28T12:13:10;9.50;20.30
22827;DHT22;11580;52.562;13.418;2023-02-28T12:16:01;9.50;19.90
22827;DHT22;11580;52.562;13.418;2023-02-28T12:19:19;9.50;19.90
22827;DHT22;11580;52.562;13.418;2023-02-28T12:22:12;9.50;20.10
22827;DHT22;11580;52.562;13.418;2023-02-28T12:28:15;9.50;19.90
22827;DHT22;11580;52.562;13.418;2023-02-28T12:30:51;9.50;21.10
22827;DHT22;11580;52.562;13.418;2023-02-28T12:33:28;9.50;20.50
22827;DHT22;11580;52.562;13.418;2023-02-28T12:36:05;9.50;20.40
22827;DHT22;11580;52.562;13.418;2023-02-28T12:38:41;9.50;20.70
22827;DHT22;11580;52.562;13.418;2023-02-28T12:41:15;9.50;20.70
22827;DHT22;11580;52.562;13.418;2023-02-28T12:43:48;9.50;20.80
22827;DHT22;11580;52.562;13.418;2023-02-28T12:46:23;9.50;20.90
22827;DHT22;11580;52.562;13.418;2023-02-28T12:48:56;9.50;20.90
22827;DHT22;11580;52.562;13.418;2023-02-28T12:51:26;9.50;21.00
22827;DHT22;11580;52.562;13.418;2023-02-28T12:54:01;9.50;21.40
22827;DHT22;11580;52.562;13.418;2023-02-28T12:56:43;9.50;20.80
22827;DHT22;11580;52.562;13.418;2023-02-28T12:59:22;9.60;20.40
22827;DHT22;11580;52.562;13.418;2023-02-28T13:02:02;9.60;20.60
22827;DHT22;11580;52.562;13.418;2023-02-28T13:04:57;9.60;20.40
22827;DHT22;11580;52.562;13.418;2023-02-28T13:07:54;9.70;19.90
22827;DHT22;11580;52.562;13.418;2023-02-28T13:10:43;9.70;19.90
22827;DHT22;11580;52.562;13.418;2023-02-28T13:13:21;9.70;20.60
22827;DHT22;11580;52.562;13.418;2023-02-28T13:16:01;9.70;20.30
22827;DHT22;11580;52.562;13.418;2023-02-28T13:18:34;9.70;20.40
22827;DHT22;11580;52.562;13.418;2023-02-28T13:21:06;9.70;20.90
22827;DHT22;11580;52.562;13.418;2023-02-28T13:23:58;9.70;21.50
22827;DHT22;11580;52.562;13.418;2023-02-28T13:33:34;9.70;19.70
22827;DHT22;11580;52.562;13.418;2023-02-28T13:36:25;9.70;21.10
22827;DHT22;11580;52.562;13.418;2023-02-28T13:38:56;9.70;19.30
22827;DHT22;11580;52.562;13.418;2023-02-28T13:41:47;9.70;21.00
22827;DHT22;11580;52.562;13.418;2023-02-28T13:44:17;9.60;19.70
22827;DHT22;11580;52.562;13.418;2023-02-28T13:47:19;9.60;21.00
22827;DHT22;11580;52.562;13.418;2023-02-28T13:49:51;9.70;20.20
22827;DHT22;11580;52.562;13.418;2023-02-28T13:52:22;9.70;20.80
22827;DHT22;11580;52.562;13.418;2023-02-28T13:55:13;9.70;20.60
22827;DHT22;11580;52.562;13.418;2023-02-28T13:58:04;9.70;19.40
22827;DHT22;11580;52.562;13.418;2023-02-28T14:00:58;9.70;20.10
22827;DHT22;11580;52.562;13.418;2023-02-28T14:04:06;9.70;20.00
22827;DHT22;11580;52.562;13.418;2023-02-28T14:06:47;9.80;19.50
22827;DHT22;11580;52.562;13.418;2023-02-28T14:09:21;9.80;21.00
22827;DHT22;11580;52.562;13.418;2023-02-28T14:11:51;9.80;20.40
22827;DHT22;11580;52.562;13.418;2023-02-28T14:14:53;9.80;20.90
22827;DHT22;11580;52.562;13.418;2023-02-28T14:17:23;9.80;19.90
22827;DHT22;11580;52.562;13.418;2023-02-28T14:19:54;9.80;21.40
22827;DHT22;11580;52.562;13.418;2023-02-28T14:22:43;9.80;20.70
22827;DHT22;11580;52.562;13.418;2023-02-28T14:25:23;9.80;19.30
22827;DHT22;11580;52.562;13.418;2023-02-28T14:28:06;9.80;20.30
22827;DHT22;11580;52.562;13.418;2023-02-28T14:30:56;9.80;20.30
22827;DHT22;11580;52.562;13.418;2023-02-28T14:33:58;9.80;20.00
22827;DHT22;11580;52.562;13.418;2023-02-28T14:36:42;9.80;19.70
22827;DHT22;11580;52.562;13.418;2023-02-28T14:39:13;9.80;20.50
22827;DHT22;11580;52.562;13.418;2023-02-28T14:41:42;9.80;20.40
22827;DHT22;11580;52.562;13.418;2023-02-28T14:44:16;9.80;20.70
22827;DHT22;11580;52.562;13.418;2023-02-28T14:46:48;9.80;20.10
22827;DHT22;11580;52.562;13.418;2023-02-28T14:49:20;9.70;20.70
22827;DHT22;11580;52.562;13.418;2023-02-28T14:52:03;9.70;20.30
22827;DHT22;11580;52.562;13.418;2023-02-28T14:54:35;9.70;19.50
22827;DHT22;11580;52.562;13.418;2023-02-28T14:57:04;9.70;20.80
22827;DHT22;11580;52.562;13.418;2023-02-28T14:59:33;9.70;20.70
22827;DHT22;11580;52.562;13.418;2023-02-28T15:02:20;9.70;20.50
22827;DHT22;11580;52.562;13.418;2023-02-28T15:04:56;9.60;19.20
22827;DHT22;11580;52.562;13.418;2023-02-28T15:07:26;9.60;19.60
22827;DHT22;11580;52.562;13.418;2023-02-28T15:10:17;9.60;20.40
22827;DHT22;11580;52.562;13.418;2023-02-28T15:12:52;9.60;19.50
22827;DHT22;11580;52.562;13.418;2023-02-28T15:15:24;9.50;20.00
22827;DHT22;11580;52.562;13.418;2023-02-28T15:17:57;9.50;20.40
22827;DHT22;11580;52.562;13.418;2023-02-28T15:20:27;9.50;20.40
22827;DHT22;11580;52.562;13.418;2023-02-28T15:22:56;9.50;20.70
22827;DHT22;11580;52.562;13.418;2023-02-28T15:25:25;9.50;20.90
22827;DHT22;11580;52.562;13.418;2023-02-28T15:27:55;9.40;20.50
22827;DHT22;11580;52.562;13.418;2023-02-28T15:30:25;9.40;20.50
22827;DHT22;11580;52.562;13.418;2023-02-28T15:33:15;9.40;20.50
22827;DHT22;11580;52.562;13.418;2023-02-28T15:35:46;9.40;19.60
22827;DHT22;11580;52.562;13.418;2023-02-28T15:38:18;9.30;20.80
22827;DHT22;11580;52.562;13.418;2023-02-28T15:40:52;9.30;20.50
22827;DHT22;11580;52.562;13.418;2023-02-28T15:43:25;9.30;20.70
22827;DHT22;11580;52.562;13.418;2023-02-28T15:45:57;9.50;20.50
22827;DHT22;11580;52.562;13.418;2023-02-28T15:48:28;9.20;20.50
22827;DHT22;11580;52.562;13.418;2023-02-28T15:51:01;9.20;20.80
22827;DHT22;11580;52.562;13.418;2023-02-28T15:53:36;9.20;20.90
22827;DHT22;11580;52.562;13.418;2023-02-28T15:56:14;9.10;20.60
22827;DHT22;11580;52.562;13.418;2023-02-28T15:58:50;9.10;20.70
22827;DHT22;11580;52.562;13.418;2023-02-28T16:01:24;9.10;20.90
22827;DHT22;11580;52.562;13.418;2023-02-28T16:03:56;9.00;20.30
22827;DHT22;11580;52.562;13.418;2023-02-28T16:06:40;9.00;20.70
22827;DHT22;11580;52.562;13.418;2023-02-28T16:09:12;9.00;20.00
22827;DHT22;11580;52.562;13.418;2023-02-28T16:11:43;8.90;20.60
22827;DHT22;11580;52.562;13.418;2023-02-28T16:14:16;8.90;20.70
22827;DHT22;11580;52.562;13.418;2023-02-28T16:16:46;8.80;20.70
22827;DHT22;11580;52.562;13.418;2023-02-28T16:19:15;8.80;21.00
22827;DHT22;11580;52.562;13.418;2023-02-28T16:21:42;8.70;21.00
22827;DHT22;11580;52.562;13.418;2023-02-28T16:24:11;8.70;21.60
22827;DHT22;11580;52.562;13.418;2023-02-28T16:26:40;8.60;20.90
22827;DHT22;11580;52.562;13.418;2023-02-28T16:29:11;8.60;21.00
22827;DHT22;11580;52.562;13.418;2023-02-28T16:31:41;8.50;20.90